createdAt,value
2023-05-16T00:01:35.610Z,47.90
2023-05-16T00:04:04.791Z,48.97
2023-05-16T00:06:33.147Z,47.20
2023-05-16T00:09:02.741Z,49.83
2023-05-16T00:11:30.780Z,49.73
2023-05-16T00:13:58.894Z,47.40
2023-05-16T00:16:29.494Z,47.70
2023-05-16T00:18:58.142Z,47.73
2023-05-16T00:21:26.209Z,47.80
2023-05-16T00:23:54.244Z,47.77
2023-05-16T00:26:23.663Z,50.87
2023-05-16T00:28:51.639Z,49.17
2023-05-16T00:31:19.755Z,47.37
2023-05-16T00:33:47.888Z,48.53
2023-05-16T00:36:15.946Z,49.17
2023-05-16T00:38:43.974Z,46.03
2023-05-16T00:41:12.116Z,47.60
2023-05-16T00:43:41.516Z,47.50
2023-05-16T00:46:09.565Z,48.10
2023-05-16T00:48:37.772Z,50.10
2023-05-16T00:51:09.325Z,50.50
2023-05-16T00:53:37.824Z,49.47
2023-05-16T00:56:07.481Z,48.07
2023-05-16T00:58:35.838Z,48.47
2023-05-16T01:01:05.683Z,48.70
2023-05-16T01:03:34.610Z,50.10
2023-05-16T01:06:02.780Z,48.97
2023-05-16T01:08:30.794Z,50.90
2023-05-16T01:11:06.037Z,48.77
2023-05-16T01:13:42.073Z,46.40
2023-05-16T01:16:23.413Z,47.87
2023-05-16T01:19:03.619Z,48.97
2023-05-16T01:21:43.662Z,48.60
2023-05-16T01:24:20.368Z,47.10
2023-05-16T01:26:51.307Z,48.10
2023-05-16T01:29:19.987Z,47.87
2023-05-16T01:31:48.047Z,46.07
2023-05-16T01:34:16.081Z,47.60
2023-05-16T01:36:49.817Z,50.83
2023-05-16T01:39:23.723Z,47.63
2023-05-16T01:42:02.288Z,51.70
2023-05-16T01:44:35.078Z,47.50
2023-05-16T01:47:07.225Z,47.00
2023-05-16T01:49:39.431Z,48.50
2023-05-16T01:52:12.513Z,48.40
2023-05-16T01:54:45.053Z,48.37
2023-05-16T01:57:14.766Z,47.20
2023-05-16T01:59:44.186Z,47.37
2023-05-16T02:02:12.315Z,48.17
2023-05-16T02:04:40.464Z,49.93
2023-05-16T02:07:08.857Z,51.30
2023-05-16T02:09:36.901Z,47.97
2023-05-16T02:12:05.583Z,48.50
2023-05-16T02:14:35.046Z,48.80
2023-05-16T02:17:03.175Z,48.47
2023-05-16T02:19:31.263Z,49.27
2023-05-16T02:21:59.247Z,46.87
2023-05-16T02:24:27.260Z,50.13
2023-05-16T02:26:55.338Z,48.43
2023-05-16T02:29:23.344Z,49.67
2023-05-16T02:31:52.813Z,49.37
2023-05-16T02:34:20.905Z,47.17
2023-05-16T02:36:49.024Z,46.80
2023-05-16T02:39:17.102Z,47.90
2023-05-16T02:41:45.123Z,46.90
2023-05-16T02:44:13.186Z,48.47
2023-05-16T02:46:41.281Z,47.77
2023-05-16T02:49:10.621Z,49.77
2023-05-16T02:51:38.639Z,47.07
2023-05-16T02:54:09.354Z,47.77
2023-05-16T02:56:37.761Z,47.40
2023-05-16T02:59:06.384Z,48.80
2023-05-16T03:01:34.687Z,47.93
2023-05-16T03:04:03.006Z,46.97
2023-05-16T03:06:32.501Z,47.37
2023-05-16T03:09:00.583Z,46.07
2023-05-16T03:11:29.131Z,47.80
2023-05-16T03:14:01.348Z,50.10
2023-05-16T03:16:29.948Z,48.67
2023-05-16T03:18:58.022Z,46.97
2023-05-16T03:21:26.341Z,47.57
2023-05-16T03:23:56.237Z,48.00
2023-05-16T03:26:24.565Z,47.47
2023-05-16T03:28:53.121Z,46.67
2023-05-16T03:31:21.300Z,46.83
2023-05-16T03:33:49.493Z,47.87
2023-05-16T03:36:17.560Z,47.27
2023-05-16T03:38:45.825Z,51.07
2023-05-16T03:41:15.448Z,47.80
2023-05-16T03:43:43.493Z,49.00
2023-05-16T03:46:11.555Z,47.87
2023-05-16T03:48:39.632Z,47.57
2023-05-16T03:51:07.662Z,47.33
2023-05-16T03:53:35.722Z,48.60
2023-05-16T03:56:03.988Z,50.70
2023-05-16T03:58:33.503Z,47.87
2023-05-16T04:01:01.703Z,47.13
2023-05-16T04:03:30.344Z,49.40
2023-05-16T04:05:59.232Z,49.17
2023-05-16T04:08:27.376Z,47.97
2023-05-16T04:10:55.909Z,47.67
2023-05-16T04:13:23.901Z,50.13
2023-05-16T04:15:53.335Z,51.17
2023-05-16T04:18:21.289Z,56.73
2023-05-16T04:20:50.211Z,49.60
2023-05-16T04:23:18.206Z,55.40
2023-05-16T04:25:46.222Z,51.73
2023-05-16T04:28:14.812Z,50.73
2023-05-16T04:30:42.886Z,50.27
2023-05-16T04:33:12.632Z,49.40
2023-05-16T04:35:40.908Z,48.97
2023-05-16T04:38:08.928Z,49.83
2023-05-16T04:40:36.912Z,50.90
2023-05-16T04:43:04.910Z,49.60
2023-05-16T04:45:33.515Z,55.00
2023-05-16T04:48:03.207Z,53.20
2023-05-16T04:50:32.599Z,49.77
2023-05-16T04:53:00.605Z,49.87
2023-05-16T04:55:28.664Z,49.60
2023-05-16T04:57:57.268Z,51.90
2023-05-16T05:00:25.898Z,51.17
2023-05-16T05:02:54.289Z,52.13
2023-05-16T05:05:22.583Z,52.87
2023-05-16T05:07:52.623Z,52.87
2023-05-16T05:10:20.780Z,50.63
2023-05-16T05:12:48.845Z,51.73
2023-05-16T05:15:16.888Z,51.73
2023-05-16T05:17:44.930Z,53.03
2023-05-16T05:20:14.099Z,53.03
2023-05-16T05:22:42.251Z,50.67
2023-05-16T05:25:11.876Z,58.53
2023-05-16T05:27:39.863Z,57.93
2023-05-16T05:30:08.888Z,53.33
2023-05-16T05:32:36.957Z,51.00
2023-05-16T05:35:05.563Z,51.67
2023-05-16T05:37:33.789Z,53.63
2023-05-16T05:40:01.924Z,57.83
2023-05-16T05:42:31.313Z,54.23
2023-05-16T05:44:59.282Z,58.27
2023-05-16T05:47:27.342Z,58.07
2023-05-16T05:49:55.364Z,55.60
2023-05-16T05:52:23.353Z,52.03
2023-05-16T05:54:51.348Z,58.60
2023-05-16T05:57:19.307Z,55.17
2023-05-16T05:59:48.612Z,60.77
2023-05-16T06:02:17.615Z,54.97
2023-05-16T06:04:45.715Z,57.70
2023-05-16T06:07:16.079Z,60.90
2023-05-16T06:09:44.331Z,63.07
2023-05-16T06:12:12.350Z,55.90
2023-05-16T06:14:40.470Z,56.40
2023-05-16T06:17:09.859Z,57.60
2023-05-16T06:19:37.901Z,61.10
2023-05-16T06:22:06.149Z,61.97
2023-05-16T06:24:34.145Z,73.50
2023-05-16T06:27:02.125Z,59.90
2023-05-16T06:29:30.148Z,68.80
2023-05-16T06:31:58.188Z,62.03
2023-05-16T06:34:28.552Z,67.63
2023-05-16T06:36:56.812Z,57.57
2023-05-16T06:39:24.805Z,63.13
2023-05-16T06:41:56.180Z,59.50
2023-05-16T06:44:24.964Z,63.47
2023-05-16T06:46:53.039Z,57.53
2023-05-16T06:49:21.290Z,59.77
2023-05-16T06:51:50.701Z,61.97
2023-05-16T06:54:18.724Z,62.47
2023-05-16T06:56:46.989Z,64.33
2023-05-16T06:59:14.993Z,63.00
2023-05-16T07:01:43.093Z,58.93
2023-05-16T07:04:11.230Z,62.43
2023-05-16T07:06:39.303Z,57.30
2023-05-16T07:09:08.682Z,60.13
2023-05-16T07:11:37.348Z,66.27
2023-05-16T07:14:05.365Z,60.37
2023-05-16T07:16:33.517Z,57.70
2023-05-16T07:19:01.619Z,57.37
2023-05-16T07:21:29.740Z,61.00
2023-05-16T07:23:58.090Z,65.37
2023-05-16T07:26:27.522Z,58.53
2023-05-16T07:28:55.815Z,62.87
2023-05-16T07:31:24.174Z,57.60
2023-05-16T07:33:52.335Z,55.07
2023-05-16T07:36:21.305Z,59.37
2023-05-16T07:38:49.406Z,61.53
2023-05-16T07:41:17.442Z,56.60
2023-05-16T07:43:46.852Z,64.70
2023-05-16T07:46:15.320Z,63.60
2023-05-16T07:48:43.806Z,67.50
2023-05-16T07:51:12.187Z,58.10
2023-05-16T07:53:40.193Z,58.27
2023-05-16T07:56:08.922Z,56.07
2023-05-16T07:58:37.040Z,54.20
2023-05-16T08:01:06.648Z,53.93
2023-05-16T08:03:36.273Z,53.63
2023-05-16T08:06:04.919Z,60.33
2023-05-16T08:08:33.314Z,57.30
2023-05-16T08:11:01.334Z,55.17
2023-05-16T08:13:29.298Z,54.17
2023-05-16T08:15:57.316Z,53.87
2023-05-16T08:18:26.733Z,54.07
2023-05-16T08:20:54.840Z,54.50
2023-05-16T08:23:23.010Z,55.90
2023-05-16T08:25:51.028Z,59.70
2023-05-16T08:28:19.069Z,57.00
2023-05-16T08:30:48.146Z,52.60
2023-05-16T08:33:16.365Z,54.83
2023-05-16T08:35:49.280Z,53.10
2023-05-16T08:38:17.300Z,52.10
2023-05-16T08:40:45.421Z,55.43
2023-05-16T08:43:14.000Z,54.47
2023-05-16T08:45:42.857Z,56.70
2023-05-16T08:48:12.527Z,56.53
2023-05-16T08:50:42.965Z,54.13
2023-05-16T08:53:15.830Z,58.10
2023-05-16T08:55:45.375Z,51.67
2023-05-16T08:58:14.865Z,53.07
2023-05-16T09:00:43.476Z,52.27
2023-05-16T09:03:11.632Z,52.90
2023-05-16T09:05:39.910Z,56.13
2023-05-16T09:08:08.210Z,55.53
2023-05-16T09:10:37.572Z,56.40
2023-05-16T09:13:05.756Z,51.63
2023-05-16T09:15:35.355Z,52.47
2023-05-16T09:18:04.791Z,52.10
2023-05-16T09:20:33.002Z,55.90
2023-05-16T09:23:01.715Z,54.57
2023-05-16T09:25:32.625Z,55.27
2023-05-16T09:28:03.807Z,50.77
2023-05-16T09:30:34.012Z,54.57
2023-05-16T09:33:02.875Z,54.97
2023-05-16T09:38:03.519Z,51.90
2023-05-16T09:40:31.778Z,53.67
2023-05-16T09:43:18.231Z,58.70
2023-05-16T09:45:50.431Z,50.77
2023-05-16T09:48:19.234Z,52.90
2023-05-16T09:50:52.914Z,55.27
2023-05-16T09:53:28.569Z,55.47
2023-05-16T09:56:04.266Z,55.13
2023-05-16T09:58:35.459Z,54.53
2023-05-16T10:01:03.980Z,53.10
2023-05-16T10:03:32.492Z,55.13
2023-05-16T10:06:01.818Z,55.40
2023-05-16T10:08:32.639Z,54.43
2023-05-16T10:11:00.724Z,54.33
2023-05-16T10:13:31.009Z,53.73
2023-05-16T10:16:01.606Z,52.50
2023-05-16T10:18:32.692Z,52.50
2023-05-16T10:21:08.339Z,53.80
2023-05-16T10:23:42.475Z,54.63
2023-05-16T10:26:14.308Z,50.87
2023-05-16T10:28:42.941Z,53.60
2023-05-16T10:31:12.721Z,57.80
2023-05-16T10:33:41.201Z,57.03
2023-05-16T10:36:09.898Z,57.17
2023-05-16T10:38:38.899Z,54.67
2023-05-16T10:41:08.246Z,56.47
2023-05-16T10:43:36.766Z,60.93
2023-05-16T10:46:07.885Z,53.53
2023-05-16T10:48:39.659Z,54.57
2023-05-16T10:51:36.938Z,54.10
2023-05-16T10:54:10.713Z,52.73
2023-05-16T10:56:39.336Z,55.80
2023-05-16T10:59:25.209Z,56.20
2023-05-16T11:01:55.244Z,57.00
2023-05-16T11:04:24.817Z,51.57
2023-05-16T11:06:54.824Z,55.37
2023-05-16T11:09:26.614Z,56.47
2023-05-16T11:12:00.651Z,60.20
2023-05-16T11:14:32.259Z,55.83
2023-05-16T11:17:07.987Z,56.70
2023-05-16T11:19:42.787Z,58.47
2023-05-16T11:22:25.343Z,54.70
2023-05-16T11:24:58.937Z,53.20
2023-05-16T11:27:29.619Z,56.00
2023-05-16T11:30:03.499Z,54.17
2023-05-16T11:32:34.543Z,54.07
2023-05-16T11:35:06.159Z,60.80
2023-05-16T11:37:34.373Z,54.17
2023-05-16T11:40:04.165Z,58.20
2023-05-16T11:42:34.028Z,51.10
2023-05-16T11:45:09.345Z,55.17
2023-05-16T11:47:39.162Z,55.67
2023-05-16T11:50:13.784Z,56.20
2023-05-16T11:52:44.547Z,54.00
2023-05-16T11:55:15.673Z,56.43
2023-05-16T11:57:47.662Z,54.67
2023-05-16T12:00:20.097Z,59.17
2023-05-16T12:02:48.764Z,53.33
2023-05-16T12:05:20.359Z,52.57
2023-05-16T12:07:49.309Z,54.93
2023-05-16T12:10:18.755Z,53.37
2023-05-16T12:12:49.271Z,55.73
2023-05-16T12:15:17.517Z,58.33
2023-05-16T12:17:46.761Z,50.43
2023-05-16T12:20:16.544Z,50.37
2023-05-16T12:22:47.171Z,58.20
2023-05-16T12:25:29.401Z,51.67
2023-05-16T12:28:00.605Z,51.30
2023-05-16T12:30:30.742Z,50.67
2023-05-16T12:32:59.264Z,50.20
2023-05-16T12:35:31.500Z,48.97
2023-05-16T12:38:01.296Z,48.10
2023-05-16T12:40:30.555Z,56.83
2023-05-16T12:43:00.273Z,51.90
2023-05-16T12:45:29.318Z,49.73
2023-05-16T12:47:57.489Z,50.80
2023-05-16T12:50:29.223Z,53.23
2023-05-16T12:53:02.022Z,50.30
2023-05-16T12:55:30.221Z,51.47
2023-05-16T12:57:58.881Z,49.77
2023-05-16T13:00:27.323Z,51.50
2023-05-16T13:02:55.821Z,50.30
2023-05-16T13:05:24.413Z,56.30
2023-05-16T13:07:52.781Z,60.00
2023-05-16T13:10:22.337Z,48.23
2023-05-16T13:12:50.423Z,49.10
2023-05-16T13:15:19.207Z,50.10
2023-05-16T13:17:48.588Z,52.67
2023-05-16T13:20:17.422Z,48.90
2023-05-16T13:22:46.690Z,51.10
2023-05-16T13:25:14.687Z,50.40
2023-05-16T13:27:44.093Z,50.67
2023-05-16T13:30:12.725Z,54.50
2023-05-16T13:32:41.289Z,50.90
2023-05-16T13:35:10.314Z,52.87
2023-05-16T13:37:38.746Z,48.83
2023-05-16T13:40:10.283Z,48.87
2023-05-16T13:42:38.883Z,48.57
2023-05-16T13:45:09.985Z,50.70
2023-05-16T13:47:38.126Z,48.37
2023-05-16T13:50:10.145Z,51.17
2023-05-16T13:52:39.114Z,49.63
2023-05-16T13:55:08.231Z,47.50
2023-05-16T13:57:36.616Z,47.80
2023-05-16T14:00:35.427Z,50.37
2023-05-16T14:03:02.073Z,47.20
2023-05-16T14:05:30.615Z,50.17
2023-05-16T14:07:58.609Z,47.10
2023-05-16T14:10:27.111Z,50.40
2023-05-16T14:12:56.824Z,52.57
2023-05-16T14:15:24.986Z,47.93
2023-05-16T14:17:53.117Z,48.70
2023-05-16T14:20:22.974Z,48.67
2023-05-16T14:22:50.994Z,48.07
2023-05-16T14:25:19.067Z,51.80
2023-05-16T14:27:47.082Z,50.43
2023-05-16T14:30:15.332Z,48.70
2023-05-16T14:32:43.474Z,48.13
2023-05-16T14:35:11.742Z,47.70
2023-05-16T14:37:41.157Z,49.67
2023-05-16T14:40:10.434Z,47.67
2023-05-16T14:42:38.655Z,46.57
2023-05-16T14:45:07.624Z,47.47
2023-05-16T14:47:35.706Z,47.17
2023-05-16T14:50:03.913Z,48.13
2023-05-16T14:52:31.990Z,58.23
2023-05-16T14:55:01.585Z,52.30
2023-05-16T14:57:29.720Z,49.33
2023-05-16T14:59:58.630Z,48.00
2023-05-16T15:02:27.766Z,47.73
2023-05-16T15:04:55.913Z,47.27
2023-05-16T15:07:24.312Z,48.50
2023-05-16T15:09:52.328Z,47.37
2023-05-16T15:12:21.775Z,49.00
2023-05-16T15:14:49.837Z,47.00
2023-05-16T15:17:17.828Z,47.00
2023-05-16T15:19:47.817Z,50.83
2023-05-16T15:22:16.047Z,48.07
2023-05-16T15:24:44.463Z,47.07
2023-05-16T15:27:12.567Z,47.57
2023-05-16T15:29:41.997Z,49.20
2023-05-16T15:32:11.359Z,46.60
2023-05-16T15:34:39.529Z,49.90
2023-05-16T15:37:07.613Z,50.83
2023-05-16T15:39:36.102Z,47.50
2023-05-16T15:42:10.590Z,47.63
2023-05-16T15:44:41.042Z,47.80
2023-05-16T15:47:09.640Z,46.97
2023-05-16T15:49:37.762Z,48.97
2023-05-16T15:52:06.587Z,49.00
2023-05-16T15:54:34.767Z,47.63
2023-05-16T15:57:02.783Z,47.47
2023-05-16T15:59:30.812Z,47.27
2023-05-16T16:02:04.155Z,47.90
2023-05-16T16:04:32.729Z,48.80
2023-05-16T16:07:00.911Z,47.50
2023-05-16T16:09:28.989Z,48.50
2023-05-16T16:11:57.260Z,49.20
2023-05-16T16:14:25.728Z,47.10
2023-05-16T16:16:53.798Z,49.87
2023-05-16T16:19:23.450Z,47.70
2023-05-16T16:21:51.592Z,48.77
2023-05-16T16:24:20.260Z,46.70
2023-05-16T16:26:48.346Z,47.37
2023-05-16T16:29:16.562Z,47.07
2023-05-16T16:31:44.681Z,49.63
2023-05-16T16:34:12.732Z,50.37
2023-05-16T16:36:42.172Z,47.60
2023-05-16T16:39:10.350Z,50.40
2023-05-16T16:41:38.552Z,48.50
2023-05-16T16:44:06.851Z,47.27
2023-05-16T16:46:35.159Z,47.37
2023-05-16T16:49:03.389Z,50.77
2023-05-16T16:51:32.238Z,47.03
2023-05-16T16:54:01.636Z,50.20
2023-05-16T16:56:30.430Z,50.40
2023-05-16T16:58:58.484Z,48.00
2023-05-16T17:01:29.556Z,48.97
2023-05-16T17:03:58.037Z,48.67
2023-05-16T17:06:26.435Z,47.33
2023-05-16T17:08:54.655Z,48.37
2023-05-16T17:11:24.854Z,48.97
2023-05-16T17:13:59.089Z,48.17
2023-05-16T17:16:28.746Z,49.10
2023-05-16T17:18:57.114Z,47.77
2023-05-16T17:21:25.172Z,47.77
2023-05-16T17:23:53.449Z,47.20
2023-05-16T17:26:22.125Z,47.57
2023-05-16T17:28:51.713Z,46.77
2023-05-16T17:31:20.355Z,47.27
2023-05-16T17:33:48.456Z,46.80
2023-05-16T17:36:16.676Z,47.57
2023-05-16T17:38:44.714Z,48.40
2023-05-16T17:41:12.722Z,48.27
2023-05-16T17:43:40.742Z,48.00
2023-05-16T17:46:10.132Z,48.40
2023-05-16T17:48:38.254Z,48.20
2023-05-16T17:51:06.735Z,47.63
2023-05-16T17:53:34.851Z,46.90
2023-05-16T17:56:03.004Z,47.43
2023-05-16T17:58:31.084Z,47.70
2023-05-16T18:00:59.141Z,47.60
2023-05-16T18:03:28.720Z,55.13
2023-05-16T18:05:57.163Z,46.70
2023-05-16T18:08:25.299Z,46.60
2023-05-16T18:10:53.523Z,54.10
2023-05-16T18:13:22.168Z,47.67
2023-05-16T18:15:50.432Z,48.53
2023-05-16T18:18:18.632Z,46.27
2023-05-16T18:20:48.427Z,45.73
2023-05-16T18:23:16.414Z,46.00
2023-05-16T18:25:44.582Z,47.43
2023-05-16T18:28:12.723Z,46.03
2023-05-16T18:30:41.068Z,46.17
2023-05-16T18:33:09.233Z,45.60
2023-05-16T18:35:37.434Z,48.63
2023-05-16T18:38:09.133Z,45.77
2023-05-16T18:40:47.830Z,51.00
2023-05-16T18:43:15.985Z,51.33
2023-05-16T18:45:44.049Z,49.83
2023-05-16T18:48:12.235Z,47.00
2023-05-16T18:50:40.752Z,46.07
2023-05-16T18:53:10.422Z,47.63
2023-05-16T18:55:38.461Z,45.60
2023-05-16T18:58:07.034Z,45.67
2023-05-16T19:00:35.458Z,48.20
2023-05-16T19:03:03.656Z,52.97
2023-05-16T19:05:32.217Z,46.73
2023-05-16T19:08:00.727Z,46.30
2023-05-16T19:10:30.520Z,45.47
2023-05-16T19:13:03.151Z,46.60
2023-05-16T19:15:31.204Z,46.27
2023-05-16T19:17:59.401Z,46.30
2023-05-16T19:20:28.059Z,46.20
2023-05-16T19:22:56.204Z,46.37
2023-05-16T19:25:24.220Z,47.67
2023-05-16T19:27:53.714Z,45.77
2023-05-16T19:30:21.777Z,45.80
2023-05-16T19:32:53.593Z,45.57
2023-05-16T19:35:22.020Z,45.67
2023-05-16T19:37:50.025Z,46.57
2023-05-16T19:40:18.054Z,46.90
2023-05-16T19:42:46.079Z,50.63
2023-05-16T19:45:15.671Z,52.67
2023-05-16T19:47:44.124Z,48.60
2023-05-16T19:50:12.388Z,45.37
2023-05-16T19:52:40.550Z,45.87
2023-05-16T19:55:10.599Z,46.60
2023-05-16T19:57:38.905Z,46.47
2023-05-16T20:00:08.403Z,45.60
2023-05-16T20:02:38.193Z,47.07
2023-05-16T20:05:07.068Z,54.63
2023-05-16T20:07:35.102Z,45.93
2023-05-16T20:10:03.227Z,46.17
2023-05-16T20:12:31.332Z,46.20
2023-05-16T20:14:59.483Z,46.97
2023-05-16T20:17:27.520Z,46.27
2023-05-16T20:19:57.126Z,45.43
2023-05-16T20:22:25.216Z,46.30
2023-05-16T20:24:56.013Z,45.90
2023-05-16T20:27:24.135Z,46.40
2023-05-16T20:29:54.271Z,45.10
2023-05-16T20:32:22.943Z,46.90
2023-05-16T20:34:51.102Z,45.77
2023-05-16T20:37:21.236Z,45.83
2023-05-16T20:39:55.863Z,45.33
2023-05-16T20:42:23.917Z,45.73
2023-05-16T20:44:54.706Z,47.07
2023-05-16T20:47:25.002Z,45.07
2023-05-16T20:49:56.556Z,45.37
2023-05-16T20:52:27.948Z,51.60
2023-05-16T20:54:58.181Z,45.63
2023-05-16T20:57:26.574Z,45.60
2023-05-16T20:59:56.763Z,45.67
2023-05-16T21:02:24.916Z,45.97
2023-05-16T21:04:53.091Z,45.90
2023-05-16T21:07:21.540Z,46.13
2023-05-16T21:09:50.947Z,45.77
2023-05-16T21:12:19.069Z,45.77
2023-05-16T21:14:49.370Z,45.67
2023-05-16T21:17:17.684Z,47.73
2023-05-16T21:19:45.767Z,47.10
2023-05-16T21:22:16.327Z,64.37
2023-05-16T21:24:44.465Z,45.63
2023-05-16T21:27:14.456Z,45.07
2023-05-16T21:29:42.458Z,45.33
2023-05-16T21:32:12.424Z,46.20
2023-05-16T21:34:41.429Z,46.17
2023-05-16T21:37:11.922Z,45.10
2023-05-16T21:39:39.981Z,50.47
2023-05-16T21:42:08.081Z,54.93
2023-05-16T21:44:37.483Z,51.30
2023-05-16T21:47:05.923Z,46.93
2023-05-16T21:49:35.339Z,46.10
2023-05-16T21:52:05.568Z,46.07
2023-05-16T21:54:35.098Z,45.60
2023-05-16T21:57:03.147Z,45.20
2023-05-16T21:59:31.162Z,45.17
2023-05-16T22:02:00.554Z,49.17
2023-05-16T22:04:28.608Z,52.90
2023-05-16T22:06:56.750Z,46.50
2023-05-16T22:09:24.824Z,45.73
2023-05-16T22:11:52.877Z,45.50
2023-05-16T22:14:20.898Z,53.63
2023-05-16T22:16:48.959Z,45.57
2023-05-16T22:19:18.399Z,45.37
2023-05-16T22:21:46.470Z,45.60
2023-05-16T22:24:14.514Z,45.37
2023-05-16T22:26:42.546Z,45.37
2023-05-16T22:29:10.607Z,45.23
2023-05-16T22:31:38.707Z,45.57
2023-05-16T22:34:06.794Z,45.80
2023-05-16T22:36:36.328Z,45.40
2023-05-16T22:39:04.548Z,45.37
2023-05-16T22:41:33.212Z,45.07
2023-05-16T22:44:01.609Z,45.10
2023-05-16T22:46:29.618Z,46.20
2023-05-16T22:48:57.793Z,45.50
2023-05-16T22:51:26.080Z,45.43
2023-05-16T22:53:55.638Z,45.70
2023-05-16T22:56:23.655Z,45.67
2023-05-16T22:58:51.918Z,47.57
2023-05-16T23:01:20.017Z,45.83
2023-05-16T23:03:48.208Z,45.57
2023-05-16T23:06:16.782Z,45.97
2023-05-16T23:08:44.898Z,45.67
2023-05-16T23:11:14.356Z,45.97
2023-05-16T23:13:42.463Z,45.70
2023-05-16T23:16:10.461Z,48.03
2023-05-16T23:18:38.881Z,45.27
2023-05-16T23:21:07.235Z,45.93
2023-05-16T23:23:35.331Z,46.30
2023-05-16T23:26:03.418Z,46.00
2023-05-16T23:28:32.924Z,49.13
2023-05-16T23:31:01.017Z,46.03
2023-05-16T23:33:29.387Z,45.43
2023-05-16T23:35:57.514Z,45.40
2023-05-16T23:38:27.381Z,45.73
2023-05-16T23:40:55.605Z,45.80
2023-05-16T23:43:23.631Z,45.13
2023-05-16T23:45:53.077Z,45.30
2023-05-16T23:48:21.410Z,45.17
2023-05-16T23:50:49.498Z,45.43
2023-05-16T23:53:17.672Z,45.33
2023-05-16T23:55:46.112Z,45.27
2023-05-16T23:58:14.172Z,50.63
